createdAt,value
2019-06-08T00:00:20.577Z,59.67
2019-06-08T00:01:20.481Z,59.90
2019-06-08T00:02:20.581Z,60.61
2019-06-08T00:03:19.079Z,60.07
2019-06-08T00:04:19.069Z,60.50
2019-06-08T00:05:19.055Z,60.68
2019-06-08T00:06:19.062Z,60.98
2019-06-08T00:07:19.040Z,60.91
2019-06-08T00:08:19.252Z,61.11
2019-06-08T00:09:20.863Z,61.01
2019-06-08T00:10:22.734Z,61.01
2019-06-08T00:11:21.119Z,60.41
2019-06-08T00:12:19.063Z,61.41
2019-06-08T00:13:19.786Z,60.81
2019-06-08T00:14:19.181Z,61.32
2019-06-08T00:15:20.175Z,61.14
2019-06-08T00:16:19.362Z,61.01
2019-06-08T00:17:35.803Z,60.30
2019-06-08T00:18:19.901Z,60.81
2019-06-08T00:19:19.415Z,61.14
2019-06-08T00:20:19.748Z,60.81
2019-06-08T00:21:19.660Z,60.91
2019-06-08T00:22:19.759Z,61.01
2019-06-08T00:23:19.984Z,61.04
2019-06-08T00:24:19.870Z,61.04
2019-06-08T00:25:19.555Z,60.84
2019-06-08T00:26:20.004Z,60.84
2019-06-08T00:27:20.199Z,60.63
2019-06-08T00:28:19.192Z,60.84
2019-06-08T00:29:18.771Z,60.53
2019-06-08T00:30:18.758Z,60.23
2019-06-08T00:31:20.005Z,59.80
2019-06-08T00:32:18.752Z,59.80
2019-06-08T00:33:18.722Z,60.13
2019-06-08T00:34:18.711Z,59.90
2019-06-08T00:35:18.739Z,59.92
2019-06-08T00:36:18.808Z,60.00
2019-06-08T00:37:18.803Z,59.80
2019-06-08T00:38:18.882Z,60.00
2019-06-08T00:39:18.935Z,59.63
2019-06-08T00:40:18.942Z,59.32
2019-06-08T00:41:20.205Z,59.19
2019-06-08T00:42:19.304Z,59.52
2019-06-08T00:43:19.138Z,59.01
2019-06-08T00:44:19.257Z,59.39
2019-06-08T00:45:20.021Z,58.78
2019-06-08T00:46:19.388Z,58.41
2019-06-08T00:47:18.564Z,58.61
2019-06-08T00:48:19.515Z,58.61
2019-06-08T00:49:18.550Z,58.31
2019-06-08T00:50:18.822Z,58.20
2019-06-08T00:51:18.991Z,58.41
2019-06-08T00:52:18.923Z,57.90
2019-06-08T00:53:19.710Z,57.80
2019-06-08T00:54:19.328Z,57.80
2019-06-08T00:55:19.478Z,57.60
2019-06-08T00:56:19.436Z,58.11
2019-06-08T00:57:19.607Z,57.80
2019-06-08T00:58:20.321Z,57.40
2019-06-08T00:59:18.440Z,57.70
2019-06-08T01:00:18.402Z,57.80
2019-06-08T01:01:20.789Z,58.20
2019-06-08T01:02:18.379Z,58.41
2019-06-08T01:03:19.494Z,58.41
2019-06-08T01:04:18.616Z,58.81
2019-06-08T01:05:19.759Z,59.01
2019-06-08T01:06:18.849Z,59.01
2019-06-08T01:07:18.320Z,59.32
2019-06-08T01:08:20.174Z,59.72
2019-06-08T01:09:18.315Z,59.72
2019-06-08T01:10:19.247Z,59.95
2019-06-08T01:11:18.656Z,60.63
2019-06-08T01:12:18.661Z,60.57
2019-06-08T01:13:18.841Z,60.86
2019-06-08T01:14:18.918Z,60.97
2019-06-08T01:15:23.858Z,60.86
2019-06-08T01:16:19.209Z,61.04
2019-06-08T01:17:19.276Z,60.26
2019-06-08T01:18:20.742Z,61.07
2019-06-08T01:19:19.166Z,60.66
2019-06-08T01:20:19.424Z,60.97
2019-06-08T01:21:19.384Z,61.14
2019-06-08T01:22:19.379Z,61.07
2019-06-08T01:23:19.447Z,60.97
2019-06-08T01:24:19.532Z,60.46
2019-06-08T01:25:20.097Z,61.00
2019-06-08T01:26:18.098Z,60.46
2019-06-08T01:27:18.085Z,60.66
2019-06-08T01:28:18.069Z,60.06
2019-06-08T01:29:18.063Z,59.75
2019-06-08T01:30:18.073Z,59.95
2019-06-08T01:31:18.035Z,60.06
2019-06-08T01:32:18.031Z,59.25
2019-06-08T01:33:18.040Z,59.05
2019-06-08T01:34:18.000Z,59.25
2019-06-08T01:35:17.990Z,59.55
2019-06-08T01:36:17.994Z,59.45
2019-06-08T01:37:17.965Z,59.25
2019-06-08T01:38:17.953Z,59.45
2019-06-08T01:39:17.972Z,58.74
2019-06-08T01:40:17.946Z,58.74
2019-06-08T01:41:17.915Z,58.54
2019-06-08T01:42:17.906Z,58.94
2019-06-08T01:43:17.895Z,58.44
2019-06-08T01:44:17.882Z,58.54
2019-06-08T01:45:17.892Z,58.64
2019-06-08T01:46:17.860Z,58.64
2019-06-08T01:47:17.851Z,58.56
2019-06-08T01:48:20.421Z,58.84
2019-06-08T01:49:17.823Z,58.94
2019-06-08T01:50:17.810Z,58.87
2019-06-08T01:51:17.818Z,58.87
2019-06-08T01:52:17.820Z,58.16
2019-06-08T01:53:17.776Z,58.47
2019-06-08T01:54:17.772Z,58.47
2019-06-08T01:55:17.759Z,57.75
2019-06-08T01:56:17.761Z,58.06
2019-06-08T01:57:17.728Z,57.86
2019-06-08T01:58:17.717Z,57.45
2019-06-08T01:59:17.706Z,57.53
2019-06-08T02:00:29.767Z,57.55
2019-06-08T02:01:18.700Z,57.75
2019-06-08T02:02:17.687Z,57.55
2019-06-08T02:03:17.666Z,57.55
2019-06-08T02:04:17.647Z,57.35
2019-06-08T02:05:17.635Z,57.04
2019-06-08T02:06:17.650Z,56.95
2019-06-08T02:07:17.615Z,57.15
2019-06-08T02:08:17.601Z,56.74
2019-06-08T02:09:17.590Z,57.15
2019-06-08T02:10:17.588Z,57.22
2019-06-08T02:11:17.584Z,56.84
2019-06-08T02:12:17.560Z,56.54
2019-06-08T02:13:17.542Z,56.95
2019-06-08T02:14:17.583Z,56.64
2019-06-08T02:15:17.522Z,56.54
2019-06-08T02:16:17.527Z,56.95
2019-06-08T02:17:17.496Z,56.74
2019-06-08T02:18:17.485Z,56.95
2019-06-08T02:19:17.474Z,56.44
2019-06-08T02:20:17.463Z,56.84
2019-06-08T02:21:17.493Z,56.44
2019-06-08T02:22:17.446Z,56.34
2019-06-08T02:23:17.430Z,56.13
2019-06-08T02:24:17.417Z,56.74
2019-06-08T02:25:17.402Z,55.93
2019-06-08T02:26:17.391Z,55.43
2019-06-08T02:27:17.414Z,56.13
2019-06-08T02:28:17.365Z,55.93
2019-06-08T02:29:17.361Z,55.43
2019-06-08T02:30:17.357Z,56.44
2019-06-08T02:31:17.331Z,56.34
2019-06-08T02:32:17.338Z,56.64
2019-06-08T02:33:17.314Z,56.44
2019-06-08T02:34:17.312Z,56.23
2019-06-08T02:35:17.286Z,56.84
2019-06-08T02:36:17.272Z,56.74
2019-06-08T02:37:17.281Z,56.64
2019-06-08T02:38:17.255Z,56.95
2019-06-08T02:39:17.239Z,56.95
2019-06-08T02:40:17.225Z,56.64
2019-06-08T02:41:17.212Z,56.54
2019-06-08T02:42:17.228Z,56.44
2019-06-08T02:43:17.198Z,56.54
2019-06-08T02:44:17.177Z,56.95
2019-06-08T02:45:17.172Z,56.84
2019-06-08T02:46:17.155Z,56.34
2019-06-08T02:47:17.166Z,56.74
2019-06-08T02:48:17.133Z,57.04
2019-06-08T02:49:17.130Z,56.95
2019-06-08T02:50:17.115Z,56.95
2019-06-08T02:51:17.097Z,56.84
2019-06-08T02:52:17.105Z,56.74
2019-06-08T02:53:17.074Z,56.34
2019-06-08T02:54:17.063Z,56.44
2019-06-08T02:55:17.050Z,56.95
2019-06-08T02:56:17.121Z,56.84
2019-06-08T02:57:17.048Z,56.74
2019-06-08T02:58:17.016Z,56.74
2019-06-08T02:59:17.004Z,57.04
2019-06-08T03:00:16.997Z,56.74
2019-06-08T03:01:16.982Z,56.95
2019-06-08T03:02:16.972Z,56.95
2019-06-08T03:03:16.979Z,56.74
2019-06-08T03:04:16.968Z,57.02
2019-06-08T03:05:16.941Z,56.74
2019-06-08T03:06:16.921Z,56.54
2019-06-08T03:07:16.920Z,56.95
2019-06-08T03:08:16.917Z,56.84
2019-06-08T03:09:16.897Z,56.84
2019-06-08T03:10:16.874Z,56.64
2019-06-08T03:11:16.864Z,56.64
2019-06-08T03:12:16.851Z,56.95
2019-06-08T03:13:16.858Z,56.95
2019-06-08T03:14:16.828Z,56.64
2019-06-08T03:15:16.817Z,56.64
2019-06-08T03:16:16.812Z,56.84
2019-06-08T03:17:16.798Z,56.74
2019-06-08T03:18:16.804Z,56.74
2019-06-08T03:19:22.370Z,56.95
2019-06-08T03:20:17.759Z,56.95
2019-06-08T03:21:16.758Z,56.64
2019-06-08T03:22:16.750Z,56.74
2019-06-08T03:23:16.725Z,56.74
2019-06-08T03:24:16.732Z,56.64
2019-06-08T03:25:16.702Z,56.84
2019-06-08T03:26:16.691Z,56.84
2019-06-08T03:27:16.677Z,56.44
2019-06-08T03:28:16.667Z,56.84
2019-06-08T03:29:16.673Z,56.64
2019-06-08T03:30:19.026Z,57.15
2019-06-08T03:31:16.671Z,56.64
2019-06-08T03:32:16.626Z,56.74
2019-06-08T03:33:16.610Z,56.64
2019-06-08T03:34:16.613Z,56.74
2019-06-08T03:35:16.584Z,56.67
2019-06-08T03:36:16.573Z,56.74
2019-06-08T03:37:16.561Z,56.57
2019-06-08T03:38:16.548Z,56.84
2019-06-08T03:39:16.557Z,56.74
2019-06-08T03:40:16.524Z,56.77
2019-06-08T03:41:16.514Z,56.67
2019-06-08T03:42:16.501Z,56.87
2019-06-08T03:43:16.486Z,56.97
2019-06-08T03:44:16.501Z,56.77
2019-06-08T03:45:16.466Z,56.67
2019-06-08T03:46:16.453Z,56.67
2019-06-08T03:47:16.446Z,56.97
2019-06-08T03:48:16.428Z,56.77
2019-06-08T03:49:16.438Z,56.74
2019-06-08T03:50:16.407Z,56.84
2019-06-08T03:51:16.395Z,56.77
2019-06-08T03:52:16.382Z,56.87
2019-06-08T03:53:16.383Z,56.97
2019-06-08T03:54:16.381Z,56.97
2019-06-08T03:55:16.348Z,56.95
2019-06-08T03:56:16.346Z,56.97
2019-06-08T03:57:16.323Z,56.67
2019-06-08T03:58:16.333Z,56.87
2019-06-08T03:59:16.302Z,56.74
2019-06-08T04:00:16.290Z,56.67
2019-06-08T04:01:16.276Z,56.97
2019-06-08T04:02:16.267Z,56.77
2019-06-08T04:03:16.252Z,56.97
2019-06-08T04:04:16.262Z,56.77
2019-06-08T04:05:16.257Z,57.17
2019-06-08T04:06:16.222Z,56.97
2019-06-08T04:07:16.212Z,57.28
2019-06-08T04:08:16.220Z,57.60
2019-06-08T04:09:16.194Z,56.97
2019-06-08T04:10:16.169Z,57.37
2019-06-08T04:11:16.158Z,57.60
2019-06-08T04:12:16.158Z,57.30
2019-06-08T04:13:16.168Z,56.67
2019-06-08T04:14:16.125Z,57.17
2019-06-08T04:15:16.114Z,57.37
2019-06-08T04:16:16.101Z,57.40
2019-06-08T04:17:16.090Z,57.50
2019-06-08T04:18:16.105Z,57.40
2019-06-08T04:19:16.073Z,57.10
2019-06-08T04:20:16.053Z,56.79
2019-06-08T04:21:16.045Z,56.79
2019-06-08T04:22:16.029Z,57.30
2019-06-08T04:23:16.044Z,56.70
2019-06-08T04:24:16.020Z,57.10
2019-06-08T04:25:15.999Z,56.87
2019-06-08T04:26:15.986Z,56.99
2019-06-08T04:27:15.972Z,57.20
2019-06-08T04:28:15.960Z,57.10
2019-06-08T04:29:15.975Z,56.70
2019-06-08T04:30:15.938Z,56.72
2019-06-08T04:31:15.928Z,57.20
2019-06-08T04:32:15.915Z,56.90
2019-06-08T04:33:15.907Z,56.70
2019-06-08T04:34:15.914Z,56.79
2019-06-08T04:35:15.880Z,56.90
2019-06-08T04:36:15.871Z,56.72
2019-06-08T04:37:16.059Z,57.10
2019-06-08T04:38:15.863Z,56.90
2019-06-08T04:39:15.855Z,56.49
2019-06-08T04:40:15.823Z,56.90
2019-06-08T04:41:15.810Z,57.03
2019-06-08T04:42:15.797Z,56.99
2019-06-08T04:43:15.789Z,56.41
2019-06-08T04:44:15.793Z,56.99
2019-06-08T04:45:15.764Z,56.99
2019-06-08T04:46:15.753Z,57.10
2019-06-08T04:47:15.750Z,56.79
2019-06-08T04:48:15.730Z,56.99
2019-06-08T04:49:15.753Z,56.49
2019-06-08T04:50:22.571Z,56.90
2019-06-08T04:51:16.694Z,56.79
2019-06-08T04:52:15.681Z,56.90
2019-06-08T04:53:15.671Z,56.82
2019-06-08T04:54:15.665Z,56.79
2019-06-08T04:55:15.664Z,56.82
2019-06-08T04:56:15.635Z,56.99
2019-06-08T04:57:15.625Z,57.03
2019-06-08T04:58:15.609Z,57.20
2019-06-08T04:59:15.606Z,56.72
2019-06-08T05:00:15.605Z,56.52
2019-06-08T05:01:15.609Z,56.82
2019-06-08T05:02:15.573Z,56.72
2019-06-08T05:03:15.554Z,57.53
2019-06-08T05:04:15.543Z,57.03
2019-06-08T05:05:15.557Z,57.20
2019-06-08T05:06:15.521Z,57.12
2019-06-08T05:07:15.509Z,56.72
2019-06-08T05:08:15.497Z,56.41
2019-06-08T05:09:15.484Z,56.82
2019-06-08T05:10:15.499Z,56.82
2019-06-08T05:11:15.462Z,56.82
2019-06-08T05:12:15.450Z,57.03
2019-06-08T05:13:15.437Z,57.12
2019-06-08T05:14:15.428Z,56.99
2019-06-08T05:15:15.435Z,56.92
2019-06-08T05:16:15.403Z,57.23
2019-06-08T05:17:15.393Z,57.12
2019-06-08T05:18:15.380Z,57.33
2019-06-08T05:19:15.370Z,57.64
2019-06-08T05:20:15.377Z,57.23
2019-06-08T05:21:15.349Z,57.03
2019-06-08T05:22:15.333Z,57.03
2019-06-08T05:23:15.322Z,57.23
2019-06-08T05:24:15.311Z,57.33
2019-06-08T05:25:15.297Z,57.53
2019-06-08T05:26:15.305Z,57.43
2019-06-08T05:27:15.274Z,57.73
2019-06-08T05:28:15.263Z,57.73
2019-06-08T05:29:15.250Z,57.64
2019-06-08T05:30:15.247Z,57.53
2019-06-08T05:31:15.243Z,57.43
2019-06-08T05:32:15.220Z,57.43
2019-06-08T05:33:15.204Z,58.04
2019-06-08T05:34:15.190Z,57.73
2019-06-08T05:35:15.181Z,57.93
2019-06-08T05:36:15.188Z,57.93
2019-06-08T05:37:15.155Z,58.54
2019-06-08T05:38:15.145Z,58.14
2019-06-08T05:39:15.134Z,58.54
2019-06-08T05:40:15.128Z,59.05
2019-06-08T05:41:15.127Z,57.91
2019-06-08T05:42:15.100Z,57.81
2019-06-08T05:43:15.090Z,57.10
2019-06-08T05:44:15.243Z,57.10
2019-06-08T05:45:15.072Z,57.60
2019-06-08T05:46:15.336Z,57.71
2019-06-08T05:47:15.059Z,57.81
2019-06-08T05:48:15.030Z,57.30
2019-06-08T05:49:15.016Z,57.20
2019-06-08T05:50:15.004Z,57.91
2019-06-08T05:51:15.023Z,57.71
2019-06-08T05:52:14.980Z,57.40
2019-06-08T05:53:14.971Z,57.40
2019-06-08T05:54:14.958Z,57.60
2019-06-08T05:55:14.948Z,57.50
2019-06-08T05:56:14.954Z,57.43
2019-06-08T05:57:14.922Z,57.73
2019-06-08T05:58:14.911Z,57.53
2019-06-08T05:59:14.901Z,57.33
2019-06-08T06:00:14.890Z,56.52
2019-06-08T06:01:14.919Z,57.20
2019-06-08T06:02:14.866Z,56.99
2019-06-08T06:03:14.853Z,56.72
2019-06-08T06:04:14.851Z,56.72
2019-06-08T06:05:14.829Z,57.03
2019-06-08T06:06:14.818Z,56.62
2019-06-08T06:07:14.826Z,56.21
2019-06-08T06:08:18.820Z,55.88
2019-06-08T06:10:10.299Z,55.71
2019-06-08T06:11:10.289Z,56.21
2019-06-08T06:12:10.295Z,56.01
2019-06-08T06:13:10.269Z,56.18
2019-06-08T06:14:10.256Z,55.88
2019-06-08T06:15:10.241Z,55.50
2019-06-08T06:16:10.231Z,56.09
2019-06-08T06:17:10.236Z,56.11
2019-06-08T06:18:10.206Z,56.31
2019-06-08T06:19:10.199Z,54.86
2019-06-08T06:20:10.193Z,55.27
2019-06-08T06:21:12.060Z,55.27
2019-06-08T06:22:10.193Z,54.86
2019-06-08T06:23:10.155Z,54.77
2019-06-08T06:24:10.142Z,55.55
2019-06-08T06:25:10.127Z,56.26
2019-06-08T06:26:10.115Z,55.96
2019-06-08T06:27:10.123Z,54.53
2019-06-08T06:28:10.091Z,54.41
2019-06-08T06:29:10.084Z,54.61
2019-06-08T06:30:10.067Z,54.41
2019-06-08T06:31:10.072Z,54.24
2019-06-08T06:32:10.043Z,54.13
2019-06-08T06:33:10.033Z,54.44
2019-06-08T06:34:10.022Z,55.45
2019-06-08T06:35:10.011Z,54.33
2019-06-08T06:36:10.017Z,54.94
2019-06-08T06:37:09.984Z,55.58
2019-06-08T06:38:09.982Z,55.27
2019-06-08T06:39:09.961Z,54.05
2019-06-08T06:40:09.953Z,54.86
2019-06-08T06:41:09.956Z,55.58
2019-06-08T06:42:09.926Z,55.37
2019-06-08T06:43:09.917Z,56.70
2019-06-08T06:44:09.901Z,55.78
2019-06-08T06:45:09.890Z,56.77
2019-06-08T06:46:09.897Z,56.84
2019-06-08T06:47:09.874Z,56.92
2019-06-08T06:48:09.857Z,53.78
2019-06-08T06:49:09.846Z,54.51
2019-06-08T06:50:09.836Z,54.41
2019-06-08T06:51:22.864Z,55.32
2019-06-08T06:52:10.808Z,55.25
2019-06-08T06:53:09.798Z,54.44
2019-06-08T06:54:09.783Z,55.25
2019-06-08T06:55:09.778Z,55.25
2019-06-08T06:56:09.781Z,55.35
2019-06-08T06:57:09.750Z,55.35
2019-06-08T06:58:09.738Z,56.05
2019-06-08T06:59:09.725Z,56.09
2019-06-08T07:00:09.713Z,56.09
2019-06-08T07:01:09.722Z,56.05
2019-06-08T07:02:09.688Z,56.05
2019-06-08T07:03:09.681Z,56.05
2019-06-08T07:04:09.667Z,56.05
2019-06-08T07:05:09.662Z,55.43
2019-06-08T07:06:09.664Z,55.32
2019-06-08T07:07:09.632Z,55.32
2019-06-08T07:08:09.636Z,55.52
2019-06-08T07:09:09.607Z,55.02
2019-06-08T07:10:09.594Z,55.43
2019-06-08T07:11:09.605Z,55.12
2019-06-08T07:12:09.586Z,55.73
2019-06-08T07:13:09.559Z,55.93
2019-06-08T07:14:09.548Z,55.73
2019-06-08T07:15:09.535Z,55.43
2019-06-08T07:16:18.401Z,55.32
2019-06-08T07:17:10.511Z,55.32
2019-06-08T07:18:09.504Z,55.52
2019-06-08T07:19:09.491Z,56.23
2019-06-08T07:20:09.476Z,55.32
2019-06-08T07:21:09.492Z,55.32
2019-06-08T07:22:09.452Z,55.73
2019-06-08T07:23:09.442Z,56.13
2019-06-08T07:24:09.427Z,55.83
2019-06-08T07:25:09.419Z,56.36
2019-06-08T07:26:09.405Z,56.77
2019-06-08T07:27:09.412Z,57.07
2019-06-08T07:28:09.395Z,56.67
2019-06-08T07:29:09.370Z,57.04
2019-06-08T07:30:09.427Z,56.64
2019-06-08T07:31:09.345Z,55.76
2019-06-08T07:32:09.351Z,56.23
2019-06-08T07:33:09.335Z,56.36
2019-06-08T07:34:09.347Z,56.36
2019-06-08T07:35:09.298Z,56.05
2019-06-08T07:36:09.301Z,56.05
2019-06-08T07:37:09.315Z,56.03
2019-06-08T07:38:09.286Z,55.43
2019-06-08T07:39:09.254Z,56.46
2019-06-08T07:40:09.238Z,56.97
2019-06-08T07:41:09.228Z,56.23
2019-06-08T07:42:09.235Z,55.80
2019-06-08T07:43:09.203Z,55.19
2019-06-08T07:44:09.192Z,56.01
2019-06-08T07:45:09.180Z,55.27
2019-06-08T07:46:09.178Z,54.64
2019-06-08T07:47:09.176Z,53.52
2019-06-08T07:48:09.146Z,54.31
2019-06-08T07:49:09.137Z,53.80
2019-06-08T07:50:09.125Z,53.45
2019-06-08T07:51:09.111Z,54.33
2019-06-08T07:52:10.826Z,54.51
2019-06-08T07:53:09.087Z,53.72
2019-06-08T07:54:09.077Z,52.14
2019-06-08T07:55:09.062Z,51.58
2019-06-08T07:56:09.051Z,51.38
2019-06-08T07:57:09.041Z,51.91
2019-06-08T07:58:09.047Z,51.93
2019-06-08T07:59:09.016Z,52.26
2019-06-08T08:00:09.787Z,53.27
2019-06-08T08:01:08.994Z,53.27
2019-06-08T08:02:08.980Z,54.21
2019-06-08T08:03:08.990Z,53.90
2019-06-08T08:04:08.956Z,53.90
2019-06-08T08:05:08.948Z,54.51
2019-06-08T08:06:08.934Z,53.90
2019-06-08T08:07:08.919Z,54.11
2019-06-08T08:08:08.929Z,54.44
2019-06-08T08:09:08.899Z,55.52
2019-06-08T08:10:08.902Z,55.24
2019-06-08T08:11:08.876Z,55.15
2019-06-08T08:12:12.174Z,55.62
2019-06-08T08:13:08.855Z,55.93
2019-06-08T08:14:08.838Z,55.22
2019-06-08T08:15:08.829Z,55.24
2019-06-08T08:16:08.817Z,54.00
2019-06-08T08:17:08.827Z,54.71
2019-06-08T08:18:08.795Z,54.21
2019-06-08T08:19:08.784Z,54.41
2019-06-08T08:20:08.771Z,53.70
2019-06-08T08:21:21.309Z,54.11
2019-06-08T08:22:22.283Z,54.61
2019-06-08T08:23:09.737Z,53.47
2019-06-08T08:24:08.726Z,53.47
2019-06-08T08:25:08.715Z,52.06
2019-06-08T08:26:08.701Z,51.55
2019-06-08T08:27:08.708Z,53.09
2019-06-08T08:28:08.682Z,53.40
2019-06-08T08:29:08.672Z,52.46
2019-06-08T08:30:08.656Z,51.86
2019-06-08T08:31:10.970Z,52.16
2019-06-08T08:32:10.003Z,51.73
2019-06-08T08:33:08.620Z,51.83
2019-06-08T08:34:09.121Z,51.71
2019-06-08T08:35:09.026Z,51.20
2019-06-08T08:36:08.583Z,50.75
2019-06-08T08:37:09.666Z,47.89
2019-06-08T08:38:08.559Z,45.22
2019-06-08T08:39:08.683Z,42.77
2019-06-08T08:40:08.538Z,40.71
2019-06-08T08:41:10.869Z,40.45
2019-06-08T08:42:08.658Z,40.36
2019-06-08T08:43:09.350Z,40.53
2019-06-08T08:44:08.490Z,41.41
2019-06-08T08:45:09.032Z,41.93
2019-06-08T08:46:08.470Z,40.33
2019-06-08T08:47:08.475Z,41.67
2019-06-08T08:48:21.505Z,42.52
2019-06-08T08:49:12.873Z,44.06
2019-06-08T08:50:08.421Z,45.10
2019-06-08T08:51:08.678Z,46.14
2019-06-08T08:52:11.513Z,46.48
2019-06-08T08:53:08.480Z,46.18
2019-06-08T08:54:08.757Z,47.20
2019-06-08T08:55:08.540Z,47.71
2019-06-08T08:56:08.351Z,47.71
2019-06-08T08:57:08.696Z,47.94
2019-06-08T08:58:08.547Z,48.24
2019-06-08T08:59:10.678Z,47.74
2019-06-08T09:00:08.681Z,48.79
2019-06-08T09:01:08.338Z,46.80
2019-06-08T09:02:11.356Z,47.31
2019-06-08T09:03:25.099Z,47.23
2019-06-08T09:04:09.274Z,47.74
2019-06-08T09:05:08.554Z,49.16
2019-06-08T09:06:08.780Z,49.47
2019-06-08T09:07:10.451Z,48.96
2019-06-08T09:08:08.758Z,48.86
2019-06-08T09:09:08.865Z,49.55
2019-06-08T09:10:11.159Z,49.24
2019-06-08T09:11:08.362Z,47.91
2019-06-08T09:12:08.467Z,46.70
2019-06-08T09:13:09.233Z,46.00
2019-06-08T09:14:13.672Z,47.11
2019-06-08T09:15:09.131Z,46.58
2019-06-08T09:16:08.331Z,45.75
2019-06-08T09:17:08.697Z,45.63
2019-06-08T09:18:08.277Z,45.95
2019-06-08T09:19:08.745Z,44.85
2019-06-08T09:20:13.083Z,45.95
2019-06-08T09:21:09.080Z,45.94
2019-06-08T09:22:08.710Z,43.92
2019-06-08T09:23:14.990Z,43.60
2019-06-08T09:24:09.060Z,42.91
2019-06-08T09:25:08.746Z,43.04
2019-06-08T09:26:12.333Z,43.18
2019-06-08T09:27:08.991Z,44.51
2019-06-08T09:28:08.463Z,44.91
2019-06-08T09:29:11.084Z,45.31
2019-06-08T09:30:08.420Z,44.91
2019-06-08T09:31:09.310Z,45.03
2019-06-08T09:32:08.374Z,45.65
2019-06-08T09:33:08.143Z,45.78
2019-06-08T09:34:14.149Z,45.70
2019-06-08T09:35:09.509Z,46.33
2019-06-08T09:36:08.399Z,46.20
2019-06-08T09:37:08.511Z,46.33
2019-06-08T09:38:08.501Z,46.62
2019-06-08T09:39:12.342Z,46.48
2019-06-08T09:40:07.843Z,43.40
2019-06-08T09:41:09.018Z,44.43
2019-06-08T09:42:09.031Z,44.73
2019-06-08T09:43:12.394Z,44.60
2019-06-08T09:44:11.453Z,45.10
2019-06-08T09:45:08.846Z,43.70
2019-06-08T09:46:09.216Z,45.43
2019-06-08T09:47:12.305Z,46.18
2019-06-08T09:48:09.430Z,46.20
2019-06-08T09:49:11.670Z,45.82
2019-06-08T09:50:09.223Z,46.93
2019-06-08T09:51:09.393Z,47.43
2019-06-08T09:52:08.801Z,46.75
2019-06-08T09:53:23.280Z,47.35
2019-06-08T09:54:12.050Z,47.86
2019-06-08T09:55:09.230Z,48.08
2019-06-08T09:56:09.712Z,46.97
2019-06-08T09:57:09.034Z,47.58
2019-06-08T09:58:11.480Z,47.90
2019-06-08T09:59:10.702Z,49.01
2019-06-08T10:00:15.341Z,48.61
2019-06-08T10:01:11.496Z,48.71
2019-06-08T10:02:12.345Z,49.64
2019-06-08T10:03:09.455Z,49.54
2019-06-08T10:04:09.294Z,49.44
2019-06-08T10:05:07.589Z,49.56
2019-06-08T10:06:11.580Z,49.54
2019-06-08T10:07:08.946Z,49.54
2019-06-08T10:08:09.469Z,49.66
2019-06-08T10:09:08.981Z,49.46
2019-06-08T10:10:09.775Z,49.94
2019-06-08T10:11:09.624Z,49.16
2019-06-08T10:12:09.845Z,49.96
2019-06-08T10:13:09.655Z,50.16
2019-06-08T10:14:11.391Z,50.07
2019-06-08T10:15:08.160Z,50.37
2019-06-08T10:16:10.078Z,50.78
2019-06-08T10:17:08.903Z,50.16
2019-06-08T10:18:08.250Z,50.37
2019-06-08T10:19:10.244Z,50.85
2019-06-08T10:20:09.826Z,49.96
2019-06-08T10:21:09.661Z,50.57
2019-06-08T10:22:08.637Z,50.57
2019-06-08T10:23:26.871Z,50.16
2019-06-08T10:24:09.453Z,49.64
2019-06-08T10:25:10.777Z,49.84
2019-06-08T10:26:07.300Z,49.74
2019-06-08T10:27:11.083Z,49.64
2019-06-08T10:28:13.580Z,50.02
2019-06-08T10:29:10.256Z,50.12
2019-06-08T10:30:09.919Z,50.10
2019-06-08T10:31:07.248Z,49.39
2019-06-08T10:32:08.867Z,48.69
2019-06-08T10:33:09.860Z,47.96
2019-06-08T10:34:10.877Z,49.19
2019-06-08T10:35:10.104Z,48.99
2019-06-08T10:36:12.194Z,48.66
2019-06-08T10:37:12.868Z,48.79
2019-06-08T10:38:11.857Z,48.76
2019-06-08T10:39:11.324Z,48.06
2019-06-08T10:40:07.824Z,48.46
2019-06-08T10:41:16.262Z,48.14
2019-06-08T10:42:11.051Z,48.24
2019-06-08T10:43:09.509Z,48.54
2019-06-08T10:44:11.180Z,47.81
2019-06-08T10:45:12.121Z,47.61
2019-06-08T10:46:14.725Z,47.61
2019-06-08T10:47:11.528Z,47.00
2019-06-08T10:48:07.042Z,47.66
2019-06-08T10:49:13.156Z,47.39
2019-06-08T10:50:13.436Z,47.99
2019-06-08T10:51:11.210Z,47.81
2019-06-08T10:52:10.823Z,48.32
2019-06-08T10:53:10.528Z,49.62
2019-06-08T10:54:09.389Z,49.22
2019-06-08T10:55:09.851Z,48.72
2019-06-08T10:56:10.413Z,48.64
2019-06-08T10:57:07.739Z,48.41
2019-06-08T10:58:09.558Z,47.69
2019-06-08T10:59:09.948Z,47.79
2019-06-08T11:00:18.003Z,47.59
2019-06-08T11:01:12.160Z,47.97
2019-06-08T11:02:11.788Z,47.82
2019-06-08T11:03:10.544Z,46.09
2019-06-08T11:04:07.133Z,46.17
2019-06-08T11:05:11.700Z,45.34
2019-06-08T11:06:12.855Z,45.95
2019-06-08T11:07:13.198Z,45.42
2019-06-08T11:08:13.866Z,44.92
2019-06-08T11:09:12.752Z,45.32
2019-06-08T11:10:10.846Z,44.95
2019-06-08T11:11:09.839Z,45.83
2019-06-08T11:12:13.731Z,45.14
2019-06-08T11:13:13.272Z,46.04
2019-06-08T11:14:12.436Z,46.25
2019-06-08T11:15:11.416Z,45.42
2019-06-08T11:16:11.251Z,45.92
2019-06-08T11:17:09.974Z,45.22
2019-06-08T11:18:09.678Z,45.25
2019-06-08T11:19:12.920Z,44.16
2019-06-08T11:20:13.084Z,44.18
2019-06-08T11:21:10.707Z,44.79
2019-06-08T11:22:12.481Z,45.09
2019-06-08T11:23:10.641Z,45.77
2019-06-08T11:24:19.485Z,45.25
2019-06-08T11:25:15.154Z,45.53
2019-06-08T11:26:14.836Z,44.12
2019-06-08T11:27:11.074Z,43.04
2019-06-08T11:28:11.828Z,44.16
2019-06-08T11:29:11.839Z,43.96
2019-06-08T11:30:17.381Z,44.14
2019-06-08T11:31:13.237Z,43.52
2019-06-08T11:32:10.899Z,42.82
2019-06-08T11:33:09.381Z,43.40
2019-06-08T11:34:08.442Z,42.61
2019-06-08T11:35:08.921Z,43.12
2019-06-08T11:36:11.127Z,44.22
2019-06-08T11:37:11.496Z,43.02
2019-06-08T11:38:10.910Z,43.22
2019-06-08T11:39:09.103Z,43.02
2019-06-08T11:40:09.482Z,44.82
2019-06-08T11:41:11.861Z,43.44
2019-06-08T11:42:10.722Z,44.44
2019-06-08T11:43:08.533Z,45.25
2019-06-08T11:44:10.083Z,44.54
2019-06-08T11:45:10.870Z,44.74
2019-06-08T11:46:08.444Z,44.42
2019-06-08T11:47:09.185Z,44.20
2019-06-08T11:48:06.519Z,43.82
2019-06-08T11:49:10.752Z,44.56
2019-06-08T11:50:12.531Z,45.59
2019-06-08T11:51:09.652Z,46.01
2019-06-08T11:52:08.908Z,46.11
2019-06-08T11:53:07.840Z,46.94
2019-06-08T11:54:25.523Z,46.73
2019-06-08T11:55:09.858Z,46.73
2019-06-08T11:56:09.037Z,47.26
2019-06-08T11:57:09.815Z,46.64
2019-06-08T11:58:09.871Z,46.15
2019-06-08T11:59:07.267Z,46.56
2019-06-08T12:00:18.041Z,46.66
2019-06-08T12:01:11.686Z,47.26
2019-06-08T12:02:10.757Z,47.56
2019-06-08T12:03:08.882Z,47.59
2019-06-08T12:04:06.161Z,47.06
2019-06-08T12:05:08.609Z,47.39
2019-06-08T12:06:08.976Z,47.19
2019-06-08T12:07:07.063Z,47.77
2019-06-08T12:08:06.394Z,47.77
2019-06-08T12:09:07.058Z,46.66
2019-06-08T12:10:14.151Z,46.76
2019-06-08T12:11:09.746Z,46.84
2019-06-08T12:12:12.308Z,46.84
2019-06-08T12:13:09.224Z,46.94
2019-06-08T12:14:09.184Z,46.73
2019-06-08T12:15:09.684Z,46.44
2019-06-08T12:16:09.305Z,46.73
2019-06-08T12:17:11.800Z,46.73
2019-06-08T12:18:08.328Z,46.64
2019-06-08T12:19:06.786Z,46.96
2019-06-08T12:20:08.555Z,47.97
2019-06-08T12:21:08.663Z,47.36
2019-06-08T12:22:08.313Z,47.86
2019-06-08T12:23:06.003Z,47.97
2019-06-08T12:24:06.284Z,48.07
2019-06-08T12:25:06.009Z,48.57
2019-06-08T12:26:06.147Z,46.54
2019-06-08T12:27:17.528Z,46.76
2019-06-08T12:28:06.899Z,47.54
2019-06-08T12:29:09.364Z,47.54
2019-06-08T12:30:12.076Z,46.76
2019-06-08T12:31:11.962Z,47.86
2019-06-08T12:32:08.837Z,47.46
2019-06-08T12:33:09.354Z,47.46
2019-06-08T12:34:07.077Z,47.94
2019-06-08T12:35:07.798Z,48.44
2019-06-08T12:36:08.452Z,47.72
2019-06-08T12:37:08.779Z,45.87
2019-06-08T12:38:09.651Z,44.64
2019-06-08T12:39:05.973Z,44.54
2019-06-08T12:40:09.338Z,44.64
2019-06-08T12:41:09.195Z,44.46
2019-06-08T12:42:09.592Z,45.47
2019-06-08T12:43:09.376Z,45.77
2019-06-08T12:44:07.521Z,46.19
2019-06-08T12:45:05.691Z,46.09
2019-06-08T12:46:08.249Z,45.04
2019-06-08T12:47:10.602Z,44.00
2019-06-08T12:48:08.841Z,43.05
2019-06-08T12:49:09.496Z,42.63
2019-06-08T12:50:08.215Z,41.74
2019-06-08T12:51:05.616Z,42.02
2019-06-08T12:52:08.144Z,41.52
2019-06-08T12:53:12.412Z,39.89